Time;durP1;ratioP1;P1;durP2;ratioP2;P2;SDS_P1;SDS_P2;PMS_P1;PMS_P2;Temp;Humidity;BMP_temperature;BMP_pressure;BME280_temperature;BME280_humidity;BME280_pressure;Samples;Min_cycle;Max_cycle;Signal;HPM_P1;HPM_P2
2023/01/22 00:02:05;;;;;;;;;;;;;;;-1.17;100.00;103489.94;5067327;28;19936;-74
2023/01/22 00:04:31;;;;;;;;;;;;;;;-1.19;100.00;103486.38;5056705;28;19937;-74
2023/01/22 00:06:56;;;;;;;;;;;;;;;-1.21;100.00;103487.13;5069382;28;19964;-74
2023/01/22 00:09:22;;;;;;;;;;;;;;;-1.23;100.00;103480.16;5066467;28;20385;-75
2023/01/22 00:11:48;;;;;;;;;;;;;;;-1.22;100.00;103481.03;5066609;28;20496;-75
2023/01/22 00:14:13;;;;;;;;;;;;;;;-1.25;100.00;103486.97;5067281;28;20502;-75
2023/01/22 00:16:40;;;;;;;;;;;;;;;-1.20;100.00;103488.91;5066003;28;20508;-75
2023/01/22 00:19:05;;;;;;;;;;;;;;;-1.21;100.00;103494.94;5066486;28;19935;-75
2023/01/22 00:21:31;;;;;;;;;;;;;;;-1.23;100.00;103487.94;5066333;28;19924;-75
2023/01/22 00:23:56;;;;;;;;;;;;;;;-1.23;100.00;103489.66;5066708;28;19928;-75
2023/01/22 00:26:22;;;;;;;;;;;;;;;-1.24;100.00;103477.47;5069035;28;19926;-75
2023/01/22 00:28:47;;;;;;;;;;;;;;;-1.24;100.00;103472.28;5064713;28;19982;-75
2023/01/22 00:31:13;;;;;;;;;;;;;;;-1.26;100.00;103469.59;5065934;28;20585;-75
2023/01/22 00:33:39;;;;;;;;;;;;;;;-1.27;100.00;103475.63;5052172;28;20195;-75
2023/01/22 00:36:04;;;;;;;;;;;;;;;-1.28;100.00;103480.72;5072250;28;20135;-75
2023/01/22 00:38:30;;;;;;;;;;;;;;;-1.31;100.00;103476.28;5068632;28;21743;-76
2023/01/22 00:40:59;;;;;;;;;;;;;;;-1.35;100.00;103476.06;5068813;28;20285;-75
2023/01/22 00:43:24;;;;;;;;;;;;;;;-1.37;100.00;103474.28;5065966;28;20753;-75
2023/01/22 00:45:49;;;;;;;;;;;;;;;-1.39;100.00;103477.63;5065681;28;19932;-75
2023/01/22 00:48:15;;;;;;;;;;;;;;;-1.40;100.00;103475.88;5066176;28;20699;-75
2023/01/22 00:50:40;;;;;;;;;;;;;;;-1.41;100.00;103471.47;5066677;28;19936;-75
2023/01/22 00:53:06;;;;;;;;;;;;;;;-1.43;100.00;103476.59;5065682;28;20801;-75
2023/01/22 00:55:31;;;;;;;;;;;;;;;-1.46;100.00;103485.97;5063836;28;20580;-75
2023/01/22 00:57:56;;;;;;;;;;;;;;;-1.46;100.00;103480.78;5065253;28;20109;-75
2023/01/22 01:00:22;;;;;;;;;;;;;;;-1.48;100.00;103482.41;5066022;28;19955;-76
2023/01/22 01:05:32;;;;;;;;;;;;;;;-1.55;100.00;103482.13;5065686;28;20381;-75
2023/01/22 01:07:58;;;;;;;;;;;;;;;-1.56;100.00;103479.44;5071446;28;19963;-75
2023/01/22 01:10:23;;;;;;;;;;;;;;;-1.59;100.00;103476.72;5065972;28;19924;-76
2023/01/22 01:12:49;;;;;;;;;;;;;;;-1.62;100.00;103473.94;5065544;28;19935;-75
2023/01/22 01:15:14;;;;;;;;;;;;;;;-1.62;100.00;103471.34;5065249;28;19960;-75
2023/01/22 01:17:40;;;;;;;;;;;;;;;-1.65;100.00;103474.69;5072187;28;19990;-75
2023/01/22 01:20:05;;;;;;;;;;;;;;;-1.66;100.00;103470.31;5065670;28;19924;-75
2023/01/22 01:22:31;;;;;;;;;;;;;;;-1.68;100.00;103471.97;5063755;28;19982;-76
2023/01/22 01:24:56;;;;;;;;;;;;;;;-1.69;100.00;103472.78;5065123;28;19932;-75
2023/01/22 01:27:22;;;;;;;;;;;;;;;-1.67;100.00;103463.34;5068460;28;19936;-76
2023/01/22 01:29:47;;;;;;;;;;;;;;;-1.67;100.00;103468.53;5065049;28;20375;-75
2023/01/22 01:32:12;;;;;;;;;;;;;;;-1.69;100.00;103470.19;5068020;28;19932;-75
2023/01/22 01:34:38;;;;;;;;;;;;;;;-1.71;100.00;103454.50;5083688;28;20387;-75
2023/01/22 01:37:03;;;;;;;;;;;;;;;-1.71;100.00;103459.72;5065260;28;20017;-75
2023/01/22 01:39:29;;;;;;;;;;;;;;;-1.72;100.00;103455.34;5064992;28;19928;-76
2023/01/22 01:41:54;;;;;;;;;;;;;;;-1.72;100.00;103444.03;5068385;28;19932;-76
2023/01/22 01:44:21;;;;;;;;;;;;;;;-1.73;100.00;103455.25;5068336;28;20359;-76
2023/01/22 01:46:47;;;;;;;;;;;;;;;-1.73;100.00;103455.25;5068295;28;20466;-75
2023/01/22 01:49:17;;;;;;;;;;;;;;;-1.71;100.00;103462.31;5070966;28;19928;-76
2023/01/22 01:51:43;;;;;;;;;;;;;;;-1.72;100.00;103455.34;5053614;28;19929;-76
2023/01/22 01:54:10;;;;;;;;;;;;;;;-1.72;100.00;103457.03;5070661;28;19928;-75
2023/01/22 01:56:40;;;;;;;;;;;;;;;-1.72;100.00;103457.03;5064947;28;19928;-75
2023/01/22 01:59:06;;;;;;;;;;;;;;;-1.72;100.00;103464.81;5064106;28;20341;-76
2023/01/22 02:01:32;;;;;;;;;;;;;;;-1.73;100.00;103456.16;5065090;28;19928;-75
2023/01/22 02:03:57;;;;;;;;;;;;;;;-1.74;100.00;103459.53;5070624;28;19928;-76
2023/01/22 02:06:23;;;;;;;;;;;;;;;-1.74;100.00;103463.88;5053729;28;19928;-75
2023/01/22 02:08:48;;;;;;;;;;;;;;;-1.72;100.00;103470.94;5067503;28;20035;-75
2023/01/22 02:11:15;;;;;;;;;;;;;;;-1.68;100.00;103461.56;5064166;28;20094;-76
2023/01/22 02:13:42;;;;;;;;;;;;;;;-1.66;100.00;103467.72;5067695;28;19931;-76
2023/01/22 02:16:09;;;;;;;;;;;;;;;-1.66;100.00;103458.22;5067486;28;19928;-75
2023/01/22 02:18:34;;;;;;;;;;;;;;;-1.66;100.00;103452.13;5064715;28;20043;-76
2023/01/22 02:21:00;;;;;;;;;;;;;;;-1.68;100.00;103440.78;5063869;28;19981;-76
2023/01/22 02:23:26;;;;;;;;;;;;;;;-1.67;100.00;103442.56;5064214;28;19950;-76
2023/01/22 02:25:51;;;;;;;;;;;;;;;-1.68;100.00;103438.19;5066897;28;20295;-75
2023/01/22 02:28:16;;;;;;;;;;;;;;;-1.67;100.00;103440.88;5064186;28;19960;-76
2023/01/22 02:30:42;;;;;;;;;;;;;;;-1.67;100.00;103437.38;5070398;28;20302;-75
2023/01/22 02:33:07;;;;;;;;;;;;;;;-1.69;100.00;103433.81;5063710;28;19928;-75
2023/01/22 02:35:33;;;;;;;;;;;;;;;-1.66;100.00;103439.13;5062408;28;20395;-75
2023/01/22 02:37:58;;;;;;;;;;;;;;;-1.67;100.00;103438.25;5063665;28;19935;-75
2023/01/22 02:40:23;;;;;;;;;;;;;;;-1.65;100.00;103433.13;5048154;28;19928;-75
2023/01/22 02:42:49;;;;;;;;;;;;;;;-1.64;100.00;103440.09;5063593;28;19924;-75
2023/01/22 02:45:14;;;;;;;;;;;;;;;-1.64;100.00;103440.09;5063868;28;20110;-75
2023/01/22 02:47:40;;;;;;;;;;;;;;;-1.66;100.00;103447.84;5063709;28;19928;-75
2023/01/22 02:50:05;;;;;;;;;;;;;;;-1.67;100.00;103445.16;5063634;28;20296;-75
2023/01/22 02:52:31;;;;;;;;;;;;;;;-1.68;100.00;103430.41;5063113;28;19925;-75
2023/01/22 02:54:57;;;;;;;;;;;;;;;-1.68;100.00;103430.41;5064186;28;19969;-75
2023/01/22 02:57:22;;;;;;;;;;;;;;;-1.66;100.00;103427.06;5069220;28;19953;-77
2023/01/22 02:59:48;;;;;;;;;;;;;;;-1.66;100.00;103429.66;5064069;28;20453;-76
2023/01/22 03:02:13;;;;;;;;;;;;;;;-1.62;100.00;103432.38;5063658;28;19936;-76
2023/01/22 03:04:39;;;;;;;;;;;;;;;-1.60;100.00;103431.63;5064214;28;19932;-76
2023/01/22 03:07:04;;;;;;;;;;;;;;;-1.59;100.00;103433.41;5063742;28;19951;-76
2023/01/22 03:09:29;;;;;;;;;;;;;;;-1.57;100.00;103429.16;5063951;28;20425;-76
2023/01/22 03:11:55;;;;;;;;;;;;;;;-1.53;100.00;103430.22;5063547;28;19971;-76
2023/01/22 03:22:33;;;;;;;;;;;;;;;-1.41;100.00;103432.50;5068847;28;19933;-76
2023/01/22 03:25:00;;;;;;;;;;;;;;;-1.39;100.00;103433.44;5073264;28;19982;-76
2023/01/22 03:27:26;;;;;;;;;;;;;;;-1.39;100.00;103434.34;5066578;28;19950;-76
2023/01/22 03:29:51;;;;;;;;;;;;;;;-1.38;100.00;103443.03;5070107;28;19935;-76
2023/01/22 03:32:17;;;;;;;;;;;;;;;-1.39;100.00;103439.56;5070269;28;19928;-76
2023/01/22 03:34:42;;;;;;;;;;;;;;;-1.36;100.00;103436.22;5073558;28;20301;-76
2023/01/22 03:37:08;;;;;;;;;;;;;;;-1.34;100.00;103438.84;5067740;28;20280;-76
2023/01/22 03:39:34;;;;;;;;;;;;;;;-1.32;100.00;103430.31;5070787;28;20298;-76
2023/01/22 03:41:59;;;;;;;;;;;;;;;-1.28;100.00;103427.03;5070605;28;19974;-76
2023/01/22 03:44:25;;;;;;;;;;;;;;;-1.24;100.00;103425.47;5070250;28;19928;-76
2023/01/22 03:46:50;;;;;;;;;;;;;;;-1.18;100.00;103422.25;5067343;28;19936;-76
2023/01/22 03:49:16;;;;;;;;;;;;;;;-1.16;100.00;103418.91;5070374;28;19945;-76
2023/01/22 03:51:42;;;;;;;;;;;;;;;-1.13;100.00;103415.56;5067231;28;19973;-76
2023/01/22 03:54:11;;;;;;;;;;;;;;;-1.13;100.00;103410.34;5070200;28;19928;-76
2023/01/22 03:56:36;;;;;;;;;;;;;;;-1.14;100.00;103405.97;5051154;28;19935;-76
2023/01/22 03:59:02;;;;;;;;;;;;;;;-1.12;100.00;103409.53;5069413;28;19928;-76
2023/01/22 04:01:27;;;;;;;;;;;;;;;-1.13;100.00;103410.34;5066955;28;19928;-76
2023/01/22 04:03:53;;;;;;;;;;;;;;;-1.13;100.00;103416.41;5066897;28;20029;-76
2023/01/22 04:06:18;;;;;;;;;;;;;;;-1.13;100.00;103412.94;5072863;28;19939;-74
2023/01/22 04:08:45;;;;;;;;;;;;;;;-1.12;100.00;103412.13;5066745;28;19935;-75
2023/01/22 04:11:10;;;;;;;;;;;;;;;-1.05;100.00;103418.50;5056039;28;19928;-75
2023/01/22 04:13:36;;;;;;;;;;;;;;;-1.01;100.00;103413.50;5050949;28;19946;-75
2023/01/22 04:16:02;;;;;;;;;;;;;;;-0.97;100.00;103405.00;5069742;28;19940;-75
2023/01/22 04:18:28;;;;;;;;;;;;;;;-0.94;100.00;103403.38;5066994;28;19928;-75
2023/01/22 04:20:53;;;;;;;;;;;;;;;-0.94;100.00;103404.25;5068774;28;19928;-75
2023/01/22 04:23:19;;;;;;;;;;;;;;;-0.93;100.00;103393.00;5064510;28;20345;-75
2023/01/22 04:25:44;;;;;;;;;;;;;;;-0.93;100.00;103405.16;5048411;28;20333;-75
2023/01/22 04:28:10;;;;;;;;;;;;;;;-0.93;100.00;103399.94;5069183;28;19927;-75
2023/01/22 04:30:36;;;;;;;;;;;;;;;-0.93;100.00;103407.75;5066195;28;20318;-74
2023/01/22 04:33:01;;;;;;;;;;;;;;;-0.92;100.00;103412.13;5070062;28;20074;-74
2023/01/22 04:35:27;;;;;;;;;;;;;;;-0.91;100.00;103409.59;5072434;28;19935;-74
2023/01/22 04:37:52;;;;;;;;;;;;;;;-0.91;100.00;103407.00;5071538;28;19939;-74
2023/01/22 04:40:19;;;;;;;;;;;;;;;-0.89;100.00;103413.16;5072672;28;19924;-74
2023/01/22 04:42:44;;;;;;;;;;;;;;;-0.85;100.00;103422.88;5066220;28;20445;-74
2023/01/22 04:45:10;;;;;;;;;;;;;;;-0.81;100.00;103413.50;5066198;28;19928;-74
2023/01/22 04:47:38;;;;;;;;;;;;;;;-0.78;100.00;103416.22;5068871;28;19998;-74
2023/01/22 04:50:04;;;;;;;;;;;;;;;-0.75;100.00;103416.34;5068963;28;20014;-75
2023/01/22 04:52:29;;;;;;;;;;;;;;;-0.74;100.00;103418.13;5068598;28;19951;-74
2023/01/22 04:54:55;;;;;;;;;;;;;;;-0.73;100.00;103413.81;5066096;28;20299;-74
2023/01/22 04:57:20;;;;;;;;;;;;;;;-0.69;100.00;103411.38;5055857;28;20414;-74
2023/01/22 04:59:45;;;;;;;;;;;;;;;-0.66;100.00;103414.97;5065613;28;19928;-74
2023/01/22 05:02:11;;;;;;;;;;;;;;;-0.63;100.00;103416.00;5068893;28;19931;-74
2023/01/22 05:04:36;;;;;;;;;;;;;;;-0.60;100.00;103412.63;5065989;28;19924;-74
2023/01/22 05:07:02;;;;;;;;;;;;;;;-0.56;100.00;103414.50;5072164;28;19931;-75
2023/01/22 05:09:27;;;;;;;;;;;;;;;-0.52;100.00;103419.03;5081282;28;20113;-74
2023/01/22 05:11:53;;;;;;;;;;;;;;;-0.51;100.00;103418.22;5063654;28;20298;-75
2023/01/22 05:14:18;;;;;;;;;;;;;;;-0.48;100.00;103409.66;5065954;28;19964;-74
2023/01/22 05:16:44;;;;;;;;;;;;;;;-0.44;100.00;103427.19;5065217;28;19950;-74
2023/01/22 05:19:09;;;;;;;;;;;;;;;-0.45;100.00;103415.88;5066126;28;20394;-74
2023/01/22 05:21:34;;;;;;;;;;;;;;;-0.42;100.00;103409.91;5070424;28;20019;-74
2023/01/22 05:24:00;;;;;;;;;;;;;;;-0.41;100.00;103416.88;5065195;28;20375;-74
2023/01/22 05:26:25;;;;;;;;;;;;;;;-0.41;100.00;103414.28;5065311;28;19997;-75
2023/01/22 05:28:51;;;;;;;;;;;;;;;-0.40;100.00;103418.66;5068089;28;20019;-75
2023/01/22 05:31:16;;;;;;;;;;;;;;;-0.40;100.00;103416.06;5068542;28;20359;-75
2023/01/22 05:33:43;;;;;;;;;;;;;;;-0.37;100.00;103420.50;5065238;28;20502;-75
2023/01/22 05:36:08;;;;;;;;;;;;;;;-0.36;100.00;103420.56;5064707;28;19928;-75
2023/01/22 05:38:34;;;;;;;;;;;;;;;-0.35;100.00;103421.44;5070746;28;19977;-75
2023/01/22 05:40:59;;;;;;;;;;;;;;;-0.34;100.00;103429.34;5070768;28;20098;-75
2023/01/22 05:43:25;;;;;;;;;;;;;;;-0.34;100.00;103428.44;5070598;28;19935;-75
2023/01/22 05:45:50;;;;;;;;;;;;;;;-0.35;100.00;103434.47;5064747;28;20744;-74
2023/01/22 05:48:15;;;;;;;;;;;;;;;-0.37;100.00;103433.53;5064586;28;21572;-74
2023/01/22 05:50:41;;;;;;;;;;;;;;;-0.35;100.00;103431.84;5070419;28;19938;-75
2023/01/22 05:53:09;;;;;;;;;;;;;;;-0.35;100.00;103429.25;5067058;28;19928;-75
2023/01/22 05:55:34;;;;;;;;;;;;;;;-0.35;100.00;103437.97;5067502;28;20283;-75
2023/01/22 05:58:00;;;;;;;;;;;;;;;-0.34;100.00;103434.53;5064441;28;19951;-75
2023/01/22 06:00:25;;;;;;;;;;;;;;;-0.35;100.00;103431.84;5067024;28;20325;-76
2023/01/22 06:02:55;;;;;;;;;;;;;;;-0.37;100.00;103429.22;5067792;28;20390;-75
2023/01/22 06:05:21;;;;;;;;;;;;;;;-0.37;100.00;103436.13;5064591;28;20023;-75
2023/01/22 06:07:46;;;;;;;;;;;;;;;-0.38;100.00;103436.97;5064551;28;20401;-75
2023/01/22 06:10:11;;;;;;;;;;;;;;;-0.37;100.00;103436.13;5063874;28;20406;-75
2023/01/22 06:12:37;;;;;;;;;;;;;;;-0.37;100.00;103439.63;5070128;28;20185;-77
2023/01/22 06:15:02;;;;;;;;;;;;;;;-0.38;100.00;103437.81;5068779;28;19924;-75
2023/01/22 06:17:28;;;;;;;;;;;;;;;-0.37;100.00;103438.72;5064934;28;20367;-75
2023/01/22 06:19:53;;;;;;;;;;;;;;;-0.37;100.00;103434.44;5063536;28;19936;-75
2023/01/22 06:22:19;;;;;;;;;;;;;;;-0.37;100.00;103438.72;5063875;28;19981;-75
2023/01/22 06:24:44;;;;;;;;;;;;;;;-0.36;100.00;103435.28;5064783;28;19958;-75
2023/01/22 06:27:10;;;;;;;;;;;;;;;-0.36;100.00;103432.69;5066888;28;19938;-75
2023/01/22 06:29:35;;;;;;;;;;;;;;;-0.35;100.00;103440.56;5063926;28;20391;-75
2023/01/22 06:32:00;;;;;;;;;;;;;;;-0.34;100.00;103434.53;5053187;28;20367;-75
2023/01/22 06:34:26;;;;;;;;;;;;;;;-0.32;100.00;103440.69;5063985;28;19985;-75
2023/01/22 06:36:51;;;;;;;;;;;;;;;-0.30;100.00;103436.47;5064550;28;20040;-75
2023/01/22 06:39:17;;;;;;;;;;;;;;;-0.29;100.00;103432.13;5065934;28;20300;-75
2023/01/22 06:41:42;;;;;;;;;;;;;;;-0.30;100.00;103439.06;5069580;28;20509;-75
2023/01/22 06:44:08;;;;;;;;;;;;;;;-0.29;100.00;103438.22;5063767;28;19939;-76
2023/01/22 06:46:33;;;;;;;;;;;;;;;-0.28;100.00;103433.91;5063243;28;19936;-75
2023/01/22 06:49:00;;;;;;;;;;;;;;;-0.29;100.00;103432.13;5063172;28;19932;-74
2023/01/22 06:51:25;;;;;;;;;;;;;;;-0.28;100.00;103424.38;5063811;28;19932;-74
2023/01/22 06:53:51;;;;;;;;;;;;;;;-0.28;100.00;103423.47;5063559;28;20370;-74
2023/01/22 06:56:16;;;;;;;;;;;;;;;-0.28;100.00;103418.28;5063619;28;20410;-75
2023/01/22 06:58:42;;;;;;;;;;;;;;;-0.30;100.00;103418.22;5063065;28;20416;-74
2023/01/22 07:01:08;;;;;;;;;;;;;;;-0.30;100.00;103419.94;5069565;28;20322;-74
2023/01/22 07:03:33;;;;;;;;;;;;;;;-0.33;100.00;103423.28;5079156;28;20011;-74
2023/01/22 07:06:00;;;;;;;;;;;;;;;-0.32;100.00;103426.81;5063690;28;21644;-74
2023/01/22 07:08:25;;;;;;;;;;;;;;;-0.33;100.00;103422.41;5063242;28;20122;-74
2023/01/22 07:10:51;;;;;;;;;;;;;;;-0.35;100.00;103426.66;5069526;28;20037;-74
2023/01/22 07:13:16;;;;;;;;;;;;;;;-0.35;100.00;103426.66;5069482;28;19928;-74
2023/01/22 07:15:42;;;;;;;;;;;;;;;-0.36;100.00;103424.88;5066601;28;19928;-74
2023/01/22 07:18:08;;;;;;;;;;;;;;;-0.35;100.00;103429.25;5069033;28;20387;-74
2023/01/22 07:20:33;;;;;;;;;;;;;;;-0.34;100.00;103434.53;5069389;28;20319;-75
2023/01/22 07:22:58;;;;;;;;;;;;;;;-0.36;100.00;103430.09;5063290;28;19931;-75
2023/01/22 07:25:24;;;;;;;;;;;;;;;-0.37;100.00;103428.31;5063658;28;20459;-75
2023/01/22 07:27:49;;;;;;;;;;;;;;;-0.34;100.00;103434.53;5078702;28;20465;-74
2023/01/22 07:30:15;;;;;;;;;;;;;;;-0.31;100.00;103433.78;5063410;28;19935;-75
2023/01/22 07:32:40;;;;;;;;;;;;;;;-0.30;100.00;103435.56;5063439;28;19928;-74
2023/01/22 07:35:06;;;;;;;;;;;;;;;-0.30;100.00;103432.94;5063758;28;20413;-74
2023/01/22 07:37:31;;;;;;;;;;;;;;;-0.30;100.00;103440.75;5062473;28;19940;-74
2023/01/22 07:39:57;;;;;;;;;;;;;;;-0.30;100.00;103446.88;5063426;28;19935;-74
2023/01/22 07:42:22;;;;;;;;;;;;;;;-0.30;100.00;103445.97;5063040;28;19967;-74
2023/01/22 07:44:47;;;;;;;;;;;;;;;-0.30;100.00;103448.56;5063198;28;20231;-74
2023/01/22 07:47:13;;;;;;;;;;;;;;;-0.31;100.00;103447.69;5062724;28;19978;-75
2023/01/22 07:49:38;;;;;;;;;;;;;;;-0.30;100.00;103457.28;5062754;28;20023;-74
2023/01/22 07:52:04;;;;;;;;;;;;;;;-0.32;100.00;103460.66;5062606;28;20396;-75
2023/01/22 07:54:29;;;;;;;;;;;;;;;-0.36;100.00;103458.72;5063457;28;20047;-74
2023/01/22 07:56:55;;;;;;;;;;;;;;;-0.37;100.00;103454.34;5063499;28;19928;-74
2023/01/22 07:59:20;;;;;;;;;;;;;;;-0.35;100.00;103457.91;5061930;28;20367;-74
2023/01/22 08:01:46;;;;;;;;;;;;;;;-0.38;100.00;103455.19;5061712;28;19928;-75
2023/01/22 08:04:14;;;;;;;;;;;;;;;-0.36;100.00;103456.13;5063157;28;19932;-75
2023/01/22 08:06:39;;;;;;;;;;;;;;;-0.37;100.00;103463.06;5062601;28;20406;-74
2023/01/22 08:09:05;;;;;;;;;;;;;;;-0.38;100.00;103455.19;5070734;28;19939;-74
2023/01/22 08:11:30;;;;;;;;;;;;;;;-0.37;100.00;103460.47;5069138;28;20030;-75
2023/01/22 08:13:56;;;;;;;;;;;;;;;-0.36;100.00;103466.53;5066818;28;20390;-75
2023/01/22 08:16:21;;;;;;;;;;;;;;;-0.35;100.00;103463.09;5066583;28;20314;-75
2023/01/22 08:18:46;;;;;;;;;;;;;;;-0.34;100.00;103470.09;5069045;28;19935;-74
2023/01/22 08:21:12;;;;;;;;;;;;;;;-0.33;100.00;103466.69;5073102;28;20023;-75
2023/01/22 08:23:37;;;;;;;;;;;;;;;-0.33;100.00;103477.97;5065996;28;19928;-75
2023/01/22 08:26:03;;;;;;;;;;;;;;;-0.33;100.00;103466.69;5066411;28;19928;-75
2023/01/22 08:28:28;;;;;;;;;;;;;;;-0.32;100.00;103479.75;5072184;28;19931;-74
2023/01/22 08:30:57;;;;;;;;;;;;;;;-0.32;100.00;103476.28;5068936;28;20378;-75
2023/01/22 08:33:23;;;;;;;;;;;;;;;-0.32;100.00;103478.88;5072297;28;20015;-74
2023/01/22 08:35:49;;;;;;;;;;;;;;;-0.31;100.00;103488.47;5066110;28;19928;-74
2023/01/22 08:38:14;;;;;;;;;;;;;;;-0.31;100.00;103476.34;5069071;28;19925;-74
2023/01/22 08:40:39;;;;;;;;;;;;;;;-0.29;100.00;103476.38;5065763;28;20887;-74
2023/01/22 08:43:05;;;;;;;;;;;;;;;-0.29;100.00;103474.69;5066131;28;20022;-74
2023/01/22 08:45:30;;;;;;;;;;;;;;;-0.28;100.00;103472.94;5066234;28;20367;-74
2023/01/22 08:47:57;;;;;;;;;;;;;;;-0.28;100.00;103479.06;5071392;28;20023;-74
2023/01/22 08:50:23;;;;;;;;;;;;;;;-0.28;100.00;103472.94;5069341;28;21587;-74
2023/01/22 08:52:48;;;;;;;;;;;;;;;-0.28;100.00;103472.94;5064840;28;19932;-75
2023/01/22 08:55:14;;;;;;;;;;;;;;;-0.26;100.00;103478.22;5065677;28;20026;-73
2023/01/22 08:57:39;;;;;;;;;;;;;;;-0.26;100.00;103486.94;5066132;28;19928;-74
2023/01/22 09:00:05;;;;;;;;;;;;;;;-0.24;100.00;103476.56;5066002;28;19987;-74
2023/01/22 09:02:30;;;;;;;;;;;;;;;-0.25;100.00;103478.31;5065774;28;20038;-74
2023/01/22 09:04:55;;;;;;;;;;;;;;;-0.24;100.00;103487.91;5063877;28;19960;-74
2023/01/22 09:07:21;;;;;;;;;;;;;;;-0.23;100.00;103496.59;5065186;28;19935;-74
2023/01/22 09:09:46;;;;;;;;;;;;;;;-0.23;100.00;103492.28;5071312;28;19935;-73
2023/01/22 09:12:12;;;;;;;;;;;;;;;-0.22;100.00;103496.66;5081062;28;19932;-74
2023/01/22 09:14:37;;;;;;;;;;;;;;;-0.21;100.00;103498.44;5071366;28;19975;-74
2023/01/22 09:17:03;;;;;;;;;;;;;;;-0.20;100.00;103488.91;5065974;28;20379;-75
2023/01/22 09:19:28;;;;;;;;;;;;;;;-0.17;100.00;103499.44;5065200;28;19924;-74
2023/01/22 09:21:53;;;;;;;;;;;;;;;-0.19;100.00;103494.19;5070561;28;19935;-74
2023/01/22 09:24:19;;;;;;;;;;;;;;;-0.18;100.00;103492.47;5065409;28;20291;-74
2023/01/22 09:26:44;;;;;;;;;;;;;;;-0.18;100.00;103493.38;5047789;28;19931;-75
2023/01/22 09:29:10;;;;;;;;;;;;;;;-0.18;100.00;103497.66;5066812;28;20314;-75
2023/01/22 09:31:35;;;;;;;;;;;;;;;-0.17;100.00;103504.66;5070847;28;19932;-74
2023/01/22 09:34:01;;;;;;;;;;;;;;;-0.18;100.00;103513.28;5064993;28;20437;-75
2023/01/22 09:36:26;;;;;;;;;;;;;;;-0.19;100.00;103507.22;5070997;28;19928;-75
2023/01/22 09:38:52;;;;;;;;;;;;;;;-0.18;100.00;103513.28;5070619;28;20462;-75
2023/01/22 09:41:19;;;;;;;;;;;;;;;-0.15;100.00;103513.44;5068249;28;19928;-75
2023/01/22 09:43:55;;;;;;;;;;;;;;;-0.12;100.00;103512.69;5048840;28;20006;-74
2023/01/22 09:46:26;;;;;;;;;;;;;;;-0.11;100.00;103506.66;5067660;28;19929;-75
2023/01/22 09:49:07;;;;;;;;;;;;;;;-0.09;100.00;103507.59;5065572;28;20571;-74
2023/01/22 09:51:33;;;;;;;;;;;;;;;-0.08;100.00;103506.75;5066038;28;19935;-75
2023/01/22 09:53:58;;;;;;;;;;;;;;;-0.07;100.00;103509.44;5056082;28;19934;-75
2023/01/22 09:56:27;;;;;;;;;;;;;;;-0.06;100.00;103519.03;5061473;28;20298;-76
2023/01/22 09:58:53;;;;;;;;;;;;;;;-0.06;100.00;103523.38;5066244;28;19920;-76
2023/01/22 10:01:18;;;;;;;;;;;;;;;-0.07;100.00;103525.06;5061343;28;20013;-74
2023/01/22 10:03:51;;;;;;;;;;;;;;;-0.09;100.00;103528.44;5053037;28;19968;-74
2023/01/22 10:06:21;;;;;;;;;;;;;;;-0.11;100.00;103519.66;5051292;28;20556;-75
2023/01/22 10:08:59;;;;;;;;;;;;;;;-0.10;100.00;103521.44;5032117;28;19923;-75
2023/01/22 10:11:24;;;;;;;;;;;;;;;-0.10;100.00;103518.84;5045806;28;19929;-74
2023/01/22 10:13:52;;;;;;;;;;;;;;;-0.10;100.00;103527.56;5048296;28;20468;-74
2023/01/22 10:16:17;;;;;;;;;;;;;;;-0.08;100.00;103519.78;5054971;28;20669;-73
2023/01/22 10:18:46;;;;;;;;;;;;;;;-0.07;100.00;103526.75;5064124;28;19932;-75
2023/01/22 10:21:14;;;;;;;;;;;;;;;-0.05;100.00;103527.75;5070472;28;19931;-74
2023/01/22 10:23:40;;;;;;;;;;;;;;;-0.03;100.00;103531.28;5062725;28;20395;-73
2023/01/22 10:26:16;;;;;;;;;;;;;;;-0.01;100.00;103524.41;5050628;28;19947;-74
2023/01/22 10:28:42;;;;;;;;;;;;;;;-0.01;100.00;103522.72;5060767;28;19928;-74
2023/01/22 10:31:21;;;;;;;;;;;;;;;0.03;100.00;103539.38;5054903;28;19928;-74
2023/01/22 10:33:48;;;;;;;;;;;;;;;0.07;100.00;103529.97;5051013;28;19928;-74
2023/01/22 10:36:14;;;;;;;;;;;;;;;0.08;100.00;103526.53;5063478;28;19927;-73
2023/01/22 10:38:39;;;;;;;;;;;;;;;0.09;100.00;103530.91;5061949;28;19952;-73
2023/01/22 10:41:04;;;;;;;;;;;;;;;0.12;100.00;103534.53;5052144;28;21650;-74
2023/01/22 10:43:30;;;;;;;;;;;;;;;0.14;100.00;103521.56;5051398;28;20007;-74
2023/01/22 10:45:58;;;;;;;;;;;;;;;0.19;100.00;103533.09;5043526;28;20137;-75
2023/01/22 10:48:23;;;;;;;;;;;;;;;0.21;100.00;103525.34;5051826;28;19935;-74
2023/01/22 10:51:09;;;;;;;;;;;;;;;0.22;100.00;103519.28;5048928;28;20230;-75
2023/01/22 10:53:35;;;;;;;;;;;;;;;0.22;100.00;103519.28;5044386;28;19931;-75
2023/01/22 10:56:01;;;;;;;;;;;;;;;0.22;100.00;103519.28;5033563;28;19979;-74
2023/01/22 10:58:33;;;;;;;;;;;;;;;0.22;100.00;103522.78;5051757;28;19932;-74
2023/01/22 11:01:04;;;;;;;;;;;;;;;0.22;100.00;103508.88;5028833;28;20141;-75
2023/01/22 11:03:31;;;;;;;;;;;;;;;0.24;100.00;103521.13;5044772;28;19924;-75
2023/01/22 11:06:01;;;;;;;;;;;;;;;0.22;100.00;103514.09;5043380;28;19981;-74
2023/01/22 11:08:29;;;;;;;;;;;;;;;0.17;100.00;103510.38;5048170;28;19964;-74
2023/01/22 11:10:55;;;;;;;;;;;;;;;0.18;100.00;103527.78;5049112;28;20386;-74
2023/01/22 11:13:24;;;;;;;;;;;;;;;0.13;100.00;103518.06;5029602;28;20025;-74
2023/01/22 11:16:04;;;;;;;;;;;;;;;0.12;100.00;103518.91;5047594;28;19928;-75
2023/01/22 11:18:41;;;;;;;;;;;;;;;0.12;100.00;103518.91;5042835;28;20019;-76
2023/01/22 11:21:14;;;;;;;;;;;;;;;0.08;100.00;103522.22;5060966;28;20363;-75
2023/01/22 11:23:58;;;;;;;;;;;;;;;0.08;100.00;103519.63;5067160;28;20655;-75
2023/01/22 11:26:39;;;;;;;;;;;;;;;0.08;100.00;103511.81;5061529;28;20930;-75
2023/01/22 11:29:04;;;;;;;;;;;;;;;0.11;100.00;103505.81;5053220;28;20807;-75
2023/01/22 11:31:32;;;;;;;;;;;;;;;0.12;100.00;103495.44;5059600;28;19987;-75
2023/01/22 11:34:07;;;;;;;;;;;;;;;0.16;100.00;103495.59;5032399;28;19940;-75
2023/01/22 11:36:33;;;;;;;;;;;;;;;0.19;100.00;103487.88;5047977;28;19928;-75
2023/01/22 11:39:08;;;;;;;;;;;;;;;0.22;100.00;103485.41;5037643;28;19929;-74
2023/01/22 11:41:54;;;;;;;;;;;;;;;0.24;100.00;103483.75;5049664;28;19927;-74
2023/01/22 11:44:36;;;;;;;;;;;;;;;0.27;100.00;103481.25;5042295;28;20001;-74
2023/01/22 11:47:13;;;;;;;;;;;;;;;0.30;100.00;103481.38;5051127;28;19928;-74
2023/01/22 11:49:46;;;;;;;;;;;;;;;0.33;100.00;103470.19;5055888;28;20118;-74
2023/01/22 11:52:25;;;;;;;;;;;;;;;0.36;100.00;103479.03;5048389;28;19928;-74
2023/01/22 11:54:56;;;;;;;;;;;;;;;0.39;100.00;103470.44;5048365;28;20011;-74
2023/01/22 11:57:38;;;;;;;;;;;;;;;0.40;100.00;103470.47;5048799;28;20015;-74
2023/01/22 12:00:04;;;;;;;;;;;;;;;0.42;100.00;103465.34;5041140;28;20399;-74
2023/01/22 12:02:32;;;;;;;;;;;;;;;0.46;100.00;103472.47;5050590;28;20541;-74
2023/01/22 12:05:04;;;;;;;;;;;;;;;0.49;100.00;103475.19;5055457;28;20127;-74
2023/01/22 12:07:38;;;;;;;;;;;;;;;0.50;100.00;103468.25;5059458;28;19928;-75
2023/01/22 12:10:23;;;;;;;;;;;;;;;0.48;100.00;103469.94;5071013;28;19956;-73
2023/01/22 12:12:51;;;;;;;;;;;;;;;0.48;100.00;103462.97;5065428;28;19928;-73
2023/01/22 12:15:26;;;;;;;;;;;;;;;0.50;100.00;103461.31;5065220;28;19935;-73
2023/01/22 12:17:56;;;;;;;;;;;;;;;0.51;100.00;103462.22;5065057;28;19958;-73
2023/01/22 12:20:37;;;;;;;;;;;;;;;0.51;100.00;103470.03;5069456;28;19955;-75
2023/01/22 12:23:21;;;;;;;;;;;;;;;0.53;100.00;103468.38;5064075;28;21532;-75
2023/01/22 12:25:51;;;;;;;;;;;;;;;0.53;100.00;103457.94;5066136;28;20581;-74
2023/01/22 12:28:18;;;;;;;;;;;;;;;0.56;100.00;103452.84;5068019;28;19924;-74
2023/01/22 12:30:46;;;;;;;;;;;;;;;0.59;100.00;103452.09;5071724;28;20729;-75
2023/01/22 12:33:12;;;;;;;;;;;;;;;0.60;100.00;103454.72;5071673;28;19931;-75
2023/01/22 12:35:38;;;;;;;;;;;;;;;0.62;100.00;103452.19;5068166;28;19924;-74
2023/01/22 12:38:07;;;;;;;;;;;;;;;0.65;100.00;103457.53;5068195;28;19924;-74